BIKF Airport Information

Runway Information
Runway 02 Length 10019 ft width 197 ft
Elevation 137 ft Threshold 19 ft Heading 360
Runway 20 Length 10019 ft Width 197 ft
Elevation 163 ft Threshold 19 ft Heading 180
Runway 11 Length 10056 ft width 197 ft
Elevation 111 ft Threshold 43 ft Heading 90
Runway 29 Length 10056 ft Width 197 ft
Elevation 171 ft Threshold 43 ft Heading 270
Airport Frequencies
Type A/G Name AIR GND Frequency 131.9 MHZ
Type APP Name APP Frequency 119.3 MHZ
Type ATIS Name ATIS Frequency 128.3 MHZ
Type DEP Name DEP Frequency 119.3 MHZ
Type GND Name GND Frequency 121.9 MHZ
Type OPS Name BASE OPS Frequency 129 MHZ
Type PMSV Name PMSV METR Frequency 125 MHZ
Type TWR Name TWR Frequency 118.3 MHZ
Airport Navaids
Type VORTAC Name Keflavik Frequency 112000 KHZ
Type NDB Name Keflavik Frequency 392 KHZ
Type NDB Name Oscar Kilo Frequency 364 KHZ
Airport Weather Information & NOTAM
ADDS - METARS form results

(0852 UTC 19 September 2018)
Data provider http://aviationweather.gov/metar/data/
 
METAR text: BIKF 190830Z 03018G29KT 9999 FEW017 BKN260 06/04 Q0995
Conditions at: BIKF (KEFLAVIK (CIV/MI, IS) observed 0830 UTC 19 September 2018
Temperature: 6.0°C (43°F)
Dewpoint: 4.0°C (39°F) [RH = 87%]
Pressure (altimeter): 29.38 inches Hg (995.0 mb)
Winds: from the NNE (30 degrees) at 21 MPH (18 knots; 9.3 m/s)
gusting to 33 MPH (29 knots; 14.9 m/s)
Visibility: 6 or more miles (10+ km)
Ceiling: 26000 feet AGL
Clouds: few clouds at 1700 feet AGL
broken clouds at 26000 feet AGL
Weather: no significant weather observed at this time

METAR text: BIKF 190800Z 03018KT 9999 FEW017 SCT300 06/04 Q0995
Conditions at: BIKF (KEFLAVIK (CIV/MI, IS) observed 0800 UTC 19 September 2018
Temperature: 6.0°C (43°F)
Dewpoint: 4.0°C (39°F) [RH = 87%]
Pressure (altimeter): 29.38 inches Hg (995.0 mb)
Winds: from the NNE (30 degrees) at 21 MPH (18 knots; 9.3 m/s)
Visibility: 6 or more miles (10+ km)
Ceiling: at least 12,000 feet AGL
Clouds: few clouds at 1700 feet AGL
scattered clouds at 30000 feet AGL
Weather: no significant weather observed at this time

Forecast for: BIKF (KEFLAVIK (CIV/MI, IS)
Text: TAF BIKF 190756Z 1909/2009 03022G32KT 9999 FEW025 SCT045 TX09/1916Z TN04/2003Z
Forecast period: 0900 UTC 19 September 2018 to 0900 UTC 20 September 2018
Forecast type: FROM: standard forecast or significant change
Winds: from the NNE (30 degrees) at 25 MPH (22 knots; 11.3 m/s)
gusting to 37 MPH (32 knots; 16.5 m/s)
Visibility: 6 or more miles 10+ km)
Ceiling: at least 12,000 feet AGL
Clouds: few clouds at 2500 feet AGL
scattered clouds at 4500 feet AGL
Weather: no significant weather forecast for this period